METAR Data
IDs: Format: Raw Decoded Include TAF

Data at: 2108 UTC 02 Aug 2021

PALH 022053Z 00000KT 10SM CLR 22/13 A3004 RMK AO2 SLP174 T02170128 56011